Time,TemperatureF,DewpointF,PressureIn,WindDirection,WindDirectionDegrees,WindSpeedMPH,WindSpeedGustMPH,Humidity,HourlyPrecipIn,Conditions,Clouds,dailyrainin,SolarRadiationWatts/m^2,SoftwareType,DateUTC
2014-02-23 00:22:00,22.0,9.0,-100.00,West,278,8.0,16.0,57,0.00,,,0.00,0.000000,,2014-02-23 07:22:00,
2014-02-23 00:32:00,22.0,9.0,-100.00,West,278,8.0,16.0,57,0.00,,,0.00,0.000000,,2014-02-23 07:32:00,
2014-02-23 00:42:00,22.0,9.0,-100.00,West,278,8.0,16.0,57,0.00,,,0.00,0.000000,,2014-02-23 07:42:00,
2014-02-23 00:52:00,22.0,9.0,-100.00,West,278,8.0,16.0,57,0.00,,,0.00,0.000000,,2014-02-23 07:52:00,
2014-02-23 01:21:00,22.0,11.0,-100.00,WNW,299,11.0,16.0,62,0.00,,,0.00,0.000000,,2014-02-23 08:21:00,
2014-02-23 01:32:00,22.0,11.0,-100.00,WNW,299,11.0,16.0,62,0.00,,,0.00,0.000000,,2014-02-23 08:32:00,
2014-02-23 01:43:00,22.0,11.0,-100.00,WNW,299,11.0,16.0,62,0.00,,,0.00,0.000000,,2014-02-23 08:43:00,
2014-02-23 01:52:00,22.0,11.0,-100.00,WNW,299,11.0,16.0,62,0.00,,,0.00,0.000000,,2014-02-23 08:52:00,
2014-02-23 02:21:00,21.0,14.0,-100.00,West,274,9.0,14.0,73,0.00,,,0.00,0.000000,,2014-02-23 09:21:00,
2014-02-23 02:33:00,21.0,14.0,-100.00,West,274,9.0,14.0,73,0.00,,,0.00,0.000000,,2014-02-23 09:33:00,
2014-02-23 02:43:00,21.0,14.0,-100.00,West,274,9.0,14.0,73,0.00,,,0.00,0.000000,,2014-02-23 09:43:00,
2014-02-23 02:53:00,21.0,14.0,-100.00,West,274,9.0,14.0,73,0.00,,,0.00,0.000000,,2014-02-23 09:53:00,
2014-02-23 03:23:00,22.0,9.0,-100.00,WNW,292,8.0,15.0,57,0.00,,,0.00,0.000000,,2014-02-23 10:23:00,
2014-02-23 03:33:00,22.0,9.0,-100.00,WNW,292,8.0,15.0,57,0.00,,,0.00,0.000000,,2014-02-23 10:33:00,
2014-02-23 03:43:00,22.0,9.0,-100.00,WNW,292,8.0,15.0,57,0.00,,,0.00,0.000000,,2014-02-23 10:43:00,
2014-02-23 03:52:00,22.0,9.0,-100.00,WNW,292,8.0,15.0,57,0.00,,,0.00,0.000000,,2014-02-23 10:52:00,
2014-02-23 04:22:00,24.0,8.0,-100.00,WNW,296,11.0,18.0,50,0.00,,,0.00,0.000000,,2014-02-23 11:22:00,
2014-02-23 04:33:00,24.0,8.0,-100.00,WNW,296,11.0,18.0,50,0.00,,,0.00,0.000000,,2014-02-23 11:33:00,
2014-02-23 04:42:00,24.0,8.0,-100.00,WNW,296,11.0,18.0,50,0.00,,,0.00,0.000000,,2014-02-23 11:42:00,
2014-02-23 04:52:00,24.0,8.0,-100.00,WNW,296,11.0,18.0,50,0.00,,,0.00,0.000000,,2014-02-23 11:52:00,
2014-02-23 05:22:00,23.0,8.0,-100.00,WNW,299,12.0,18.0,53,0.00,,,0.00,0.000000,,2014-02-23 12:22:00,
2014-02-23 05:32:00,23.0,8.0,-100.00,WNW,299,12.0,18.0,53,0.00,,,0.00,0.000000,,2014-02-23 12:32:00,
2014-02-23 05:42:00,23.0,8.0,-100.00,WNW,299,12.0,18.0,53,0.00,,,0.00,0.000000,,2014-02-23 12:42:00,
2014-02-23 05:52:00,23.0,8.0,-100.00,WNW,299,12.0,18.0,53,0.00,,,0.00,0.000000,,2014-02-23 12:52:00,
2014-02-23 06:22:00,23.0,9.0,-100.00,WNW,302,13.0,19.0,54,0.00,,,0.00,0.000000,,2014-02-23 13:22:00,
2014-02-23 06:32:00,23.0,9.0,-100.00,WNW,302,13.0,19.0,54,0.00,,,0.00,0.000000,,2014-02-23 13:32:00,
2014-02-23 06:42:00,23.0,9.0,-100.00,WNW,302,13.0,19.0,54,0.00,,,0.00,0.000000,,2014-02-23 13:42:00,
2014-02-23 06:52:00,23.0,9.0,-100.00,WNW,302,13.0,19.0,54,0.00,,,0.00,0.000000,,2014-02-23 13:52:00,
2014-02-23 07:22:00,24.0,5.0,-100.00,WNW,302,13.0,23.0,43,0.00,,,0.00,2.000000,,2014-02-23 14:22:00,
2014-02-23 07:32:00,24.0,5.0,-100.00,WNW,302,13.0,23.0,43,0.00,,,0.00,2.000000,,2014-02-23 14:32:00,
2014-02-23 07:42:00,24.0,5.0,-100.00,WNW,302,13.0,23.0,43,0.00,,,0.00,2.000000,,2014-02-23 14:42:00,
2014-02-23 07:52:00,24.0,5.0,-100.00,WNW,302,13.0,23.0,43,0.00,,,0.00,2.000000,,2014-02-23 14:52:00,
2014-02-23 08:22:00,28.0,5.0,-100.00,WNW,297,13.0,24.0,37,0.00,,,0.00,48.000000,,2014-02-23 15:22:00,
2014-02-23 08:33:00,28.0,5.0,-100.00,WNW,297,13.0,24.0,37,0.00,,,0.00,48.000000,,2014-02-23 15:33:00,
2014-02-23 08:44:00,28.0,5.0,-100.00,WNW,297,13.0,24.0,37,0.00,,,0.00,48.000000,,2014-02-23 15:44:00,
2014-02-23 08:53:00,28.0,5.0,-100.00,WNW,297,13.0,24.0,37,0.00,,,0.00,48.000000,,2014-02-23 15:53:00,
2014-02-23 09:23:00,32.0,5.0,-100.00,NW,307,15.0,27.0,31,0.00,,,0.00,308.000000,,2014-02-23 16:23:00,
2014-02-23 09:33:00,32.0,5.0,-100.00,NW,307,15.0,27.0,31,0.00,,,0.00,308.000000,,2014-02-23 16:33:00,
2014-02-23 09:43:00,32.0,5.0,-100.00,NW,307,15.0,27.0,31,0.00,,,0.00,308.000000,,2014-02-23 16:43:00,
2014-02-23 09:53:00,32.0,5.0,-100.00,NW,307,15.0,27.0,31,0.00,,,0.00,308.000000,,2014-02-23 16:53:00,
2014-02-23 10:23:00,35.0,5.0,-100.00,NW,304,11.0,29.0,28,0.00,,,0.00,493.000000,,2014-02-23 17:23:00,
2014-02-23 10:33:00,35.0,5.0,-100.00,NW,304,11.0,29.0,28,0.00,,,0.00,493.000000,,2014-02-23 17:33:00,
2014-02-23 10:42:00,35.0,5.0,-100.00,NW,304,11.0,29.0,28,0.00,,,0.00,493.000000,,2014-02-23 17:42:00,
2014-02-23 10:52:00,35.0,5.0,-100.00,NW,304,11.0,29.0,28,0.00,,,0.00,493.000000,,2014-02-23 17:52:00,
2014-02-23 11:22:00,36.0,4.0,-100.00,NW,305,19.0,33.0,25,0.00,,,0.00,637.000000,,2014-02-23 18:22:00,
2014-02-23 11:32:00,36.0,4.0,-100.00,NW,305,19.0,33.0,25,0.00,,,0.00,637.000000,,2014-02-23 18:32:00,
2014-02-23 11:43:00,36.0,4.0,-100.00,NW,305,19.0,33.0,25,0.00,,,0.00,637.000000,,2014-02-23 18:43:00,
2014-02-23 11:52:00,36.0,4.0,-100.00,NW,305,19.0,33.0,25,0.00,,,0.00,637.000000,,2014-02-23 18:52:00,
2014-02-23 12:22:00,40.0,6.0,-100.00,WNW,284,10.0,27.0,24,0.00,,,0.00,726.000000,,2014-02-23 19:22:00,
2014-02-23 12:32:00,40.0,6.0,-100.00,WNW,284,10.0,27.0,24,0.00,,,0.00,726.000000,,2014-02-23 19:32:00,
2014-02-23 12:42:00,40.0,6.0,-100.00,WNW,284,10.0,27.0,24,0.00,,,0.00,726.000000,,2014-02-23 19:42:00,
2014-02-23 12:52:00,40.0,6.0,-100.00,WNW,284,10.0,27.0,24,0.00,,,0.00,726.000000,,2014-02-23 19:52:00,
2014-02-23 13:22:00,42.0,7.0,-100.00,WNW,288,6.0,25.0,23,0.00,,,0.00,754.000000,,2014-02-23 20:22:00,
2014-02-23 13:32:00,42.0,7.0,-100.00,WNW,288,6.0,25.0,23,0.00,,,0.00,754.000000,,2014-02-23 20:32:00,
2014-02-23 13:42:00,42.0,7.0,-100.00,WNW,288,6.0,25.0,23,0.00,,,0.00,754.000000,,2014-02-23 20:42:00,
2014-02-23 13:53:00,42.0,7.0,-100.00,WNW,288,6.0,25.0,23,0.00,,,0.00,754.000000,,2014-02-23 20:53:00,
2014-02-23 14:22:00,41.0,5.0,-100.00,WNW,282,11.0,23.0,22,0.00,,,0.00,709.000000,,2014-02-23 21:22:00,
2014-02-23 14:33:00,41.0,5.0,-100.00,WNW,282,11.0,23.0,22,0.00,,,0.00,709.000000,,2014-02-23 21:33:00,
2014-02-23 14:43:00,41.0,5.0,-100.00,WNW,282,11.0,23.0,22,0.00,,,0.00,709.000000,,2014-02-23 21:43:00,
2014-02-23 14:53:00,41.0,5.0,-100.00,WNW,282,11.0,23.0,22,0.00,,,0.00,709.000000,,2014-02-23 21:53:00,
2014-02-23 15:23:00,42.0,4.0,-100.00,West,274,7.0,27.0,20,0.00,,,0.00,607.000000,,2014-02-23 22:23:00,
2014-02-23 15:33:00,42.0,4.0,-100.00,West,274,7.0,27.0,20,0.00,,,0.00,607.000000,,2014-02-23 22:33:00,
2014-02-23 15:42:00,42.0,4.0,-100.00,West,274,7.0,27.0,20,0.00,,,0.00,607.000000,,2014-02-23 22:42:00,
2014-02-23 15:52:00,42.0,4.0,-100.00,West,274,7.0,27.0,20,0.00,,,0.00,607.000000,,2014-02-23 22:52:00,
2014-02-23 16:22:00,39.0,3.0,-100.00,West,277,13.0,30.0,22,0.00,,,0.00,445.000000,,2014-02-23 23:22:00,
2014-02-23 16:33:00,39.0,3.0,-100.00,West,277,13.0,30.0,22,0.00,,,0.00,445.000000,,2014-02-23 23:33:00,
2014-02-23 16:42:00,39.0,3.0,-100.00,West,277,13.0,30.0,22,0.00,,,0.00,445.000000,,2014-02-23 23:42:00,
2014-02-23 16:53:00,39.0,3.0,-100.00,West,277,13.0,30.0,22,0.00,,,0.00,445.000000,,2014-02-23 23:53:00,
2014-02-23 17:22:00,38.0,3.0,-100.00,WNW,282,16.0,30.0,22,0.00,,,0.00,208.000000,,2014-02-24 00:22:00,
2014-02-23 17:32:00,38.0,3.0,-100.00,WNW,282,16.0,30.0,22,0.00,,,0.00,208.000000,,2014-02-24 00:32:00,
2014-02-23 17:42:00,38.0,3.0,-100.00,WNW,282,16.0,30.0,22,0.00,,,0.00,208.000000,,2014-02-24 00:42:00,
2014-02-23 17:52:00,38.0,3.0,-100.00,WNW,282,16.0,30.0,22,0.00,,,0.00,208.000000,,2014-02-24 00:52:00,
2014-02-23 18:22:00,32.0,3.0,-100.00,NNE,16,2.0,24.0,28,0.00,,,0.00,42.000000,,2014-02-24 01:22:00,
2014-02-23 18:32:00,32.0,3.0,-100.00,NNE,16,2.0,24.0,28,0.00,,,0.00,42.000000,,2014-02-24 01:32:00,
2014-02-23 18:42:00,32.0,3.0,-100.00,NNE,16,2.0,24.0,28,0.00,,,0.00,42.000000,,2014-02-24 01:42:00,
2014-02-23 18:52:00,32.0,3.0,-100.00,NNE,16,2.0,24.0,28,0.00,,,0.00,42.000000,,2014-02-24 01:52:00,
2014-02-23 19:22:00,33.0,3.0,-100.00,West,274,10.0,18.0,28,0.00,,,0.00,1.000000,,2014-02-24 02:22:00,
2014-02-23 19:32:00,33.0,3.0,-100.00,West,274,10.0,18.0,28,0.00,,,0.00,1.000000,,2014-02-24 02:32:00,
2014-02-23 19:42:00,33.0,3.0,-100.00,West,274,10.0,18.0,28,0.00,,,0.00,1.000000,,2014-02-24 02:42:00,
2014-02-23 19:52:00,33.0,3.0,-100.00,West,274,10.0,18.0,28,0.00,,,0.00,1.000000,,2014-02-24 02:52:00,
2014-02-23 20:22:00,31.0,2.0,-100.00,WNW,303,8.0,16.0,28,0.00,,,0.00,0.000000,,2014-02-24 03:22:00,
2014-02-23 20:33:00,31.0,2.0,-100.00,WNW,303,8.0,16.0,28,0.00,,,0.00,0.000000,,2014-02-24 03:33:00,
2014-02-23 20:43:00,31.0,2.0,-100.00,WNW,303,8.0,16.0,28,0.00,,,0.00,0.000000,,2014-02-24 03:43:00,
2014-02-23 20:53:00,31.0,2.0,-100.00,WNW,303,8.0,16.0,28,0.00,,,0.00,0.000000,,2014-02-24 03:53:00,
2014-02-23 21:23:00,28.0,2.0,-100.00,West,261,3.0,5.0,32,0.00,,,0.00,0.000000,,2014-02-24 04:23:00,
2014-02-23 21:33:00,28.0,2.0,-100.00,West,261,3.0,5.0,32,0.00,,,0.00,0.000000,,2014-02-24 04:33:00,
2014-02-23 21:43:00,28.0,2.0,-100.00,West,261,3.0,5.0,32,0.00,,,0.00,0.000000,,2014-02-24 04:43:00,
2014-02-23 21:53:00,28.0,2.0,-100.00,West,261,3.0,5.0,32,0.00,,,0.00,0.000000,,2014-02-24 04:53:00,
2014-02-23 22:23:00,30.0,2.0,-100.00,West,280,5.0,13.0,29,0.00,,,0.00,0.000000,,2014-02-24 05:23:00,
2014-02-23 22:33:00,30.0,2.0,-100.00,West,280,5.0,13.0,29,0.00,,,0.00,0.000000,,2014-02-24 05:33:00,
2014-02-23 22:43:00,30.0,2.0,-100.00,West,280,5.0,13.0,29,0.00,,,0.00,0.000000,,2014-02-24 05:43:00,
2014-02-23 22:53:00,30.0,2.0,-100.00,West,280,5.0,13.0,29,0.00,,,0.00,0.000000,,2014-02-24 05:53:00,
2014-02-23 23:23:00,30.0,0.0,-100.00,NNW,343,3.0,15.0,27,0.00,,,0.00,0.000000,,2014-02-24 06:23:00,
2014-02-23 23:32:00,30.0,0.0,-100.00,NNW,343,3.0,15.0,27,0.00,,,0.00,0.000000,,2014-02-24 06:32:00,
2014-02-23 23:42:00,30.0,0.0,-100.00,NNW,343,3.0,15.0,27,0.00,,,0.00,0.000000,,2014-02-24 06:42:00,
2014-02-23 23:52:00,30.0,0.0,-100.00,NNW,343,3.0,15.0,27,0.00,,,0.00,0.000000,,2014-02-24 06:52:00,